Time;durP1;ratioP1;P1;durP2;ratioP2;P2;SDS_P1;SDS_P2;PMS_P1;PMS_P2;Temp;Humidity;BMP_temperature;BMP_pressure;BME280_temperature;BME280_humidity;BME280_pressure;Samples;Min_cycle;Max_cycle;Signal;HPM_P1;HPM_P2
2021/11/23 00:01:17;;;;;;;7.05;2.97;;;7.10;99.90;;;;;;5003253;28;20204;-73
2021/11/23 00:03:44;;;;;;;7.80;3.20;;;7.10;99.90;;;;;;5008881;28;20319;-74
2021/11/23 00:06:11;;;;;;;9.38;2.95;;;7.20;99.90;;;;;;5005260;28;20201;-74
2021/11/23 00:08:38;;;;;;;5.93;3.08;;;7.30;99.90;;;;;;4997104;28;20262;-74
2021/11/23 00:11:06;;;;;;;3.92;2.00;;;7.30;99.90;;;;;;5005036;28;20287;-74
2021/11/23 00:13:34;;;;;;;7.57;3.50;;;7.40;99.90;;;;;;5001335;28;20300;-74
2021/11/23 00:16:01;;;;;;;2.90;2.47;;;7.40;99.90;;;;;;4997016;28;20283;-73
2021/11/23 00:18:28;;;;;;;5.43;2.70;;;7.40;99.90;;;;;;5007974;28;20204;-74
2021/11/23 00:20:55;;;;;;;11.50;3.42;;;7.50;99.90;;;;;;4997328;28;20271;-74
2021/11/23 00:23:22;;;;;;;8.15;2.38;;;7.50;99.90;;;;;;5012806;28;20309;-74
2021/11/23 00:25:49;;;;;;;2.70;2.30;;;7.50;99.90;;;;;;5005239;28;20223;-73
2021/11/23 00:28:16;;;;;;;6.03;2.40;;;7.50;99.90;;;;;;5004538;28;20195;-74
2021/11/23 00:30:46;;;;;;;6.95;4.68;;;7.50;99.90;;;;;;5001054;28;20702;-73
2021/11/23 00:33:13;;;;;;;14.35;4.03;;;7.50;99.90;;;;;;5003768;28;20208;-73
2021/11/23 00:35:40;;;;;;;7.93;2.55;;;7.50;99.90;;;;;;5012358;28;20316;-74
2021/11/23 00:38:07;;;;;;;13.15;3.63;;;7.50;99.90;;;;;;5018155;28;20201;-73
2021/11/23 00:40:34;;;;;;;6.82;3.00;;;7.50;99.90;;;;;;5020296;28;20204;-73
2021/11/23 00:43:04;;;;;;;6.03;3.70;;;7.50;99.90;;;;;;5009765;28;20303;-74
2021/11/23 00:45:32;;;;;;;13.50;3.15;;;7.50;99.90;;;;;;5007386;28;20311;-74
2021/11/23 00:48:01;;;;;;;6.15;2.90;;;7.40;99.90;;;;;;5001234;28;20272;-75
2021/11/23 00:50:33;;;;;;;8.88;4.50;;;7.50;99.90;;;;;;5013832;28;20200;-73
2021/11/23 00:53:00;;;;;;;12.45;4.28;;;7.30;99.90;;;;;;5010812;28;20203;-73
2021/11/23 00:55:28;;;;;;;8.05;2.88;;;7.30;99.90;;;;;;5012325;28;20574;-73
2021/11/23 00:57:55;;;;;;;7.35;3.38;;;7.30;99.90;;;;;;5005525;28;20215;-74
2021/11/23 01:00:22;;;;;;;8.55;3.50;;;7.20;99.90;;;;;;4997121;28;20229;-74
2021/11/23 01:02:49;;;;;;;13.70;3.97;;;7.10;99.90;;;;;;5004970;28;20209;-74
2021/11/23 01:05:19;;;;;;;7.75;3.22;;;7.20;99.90;;;;;;5011357;28;20282;-74
2021/11/23 01:07:46;;;;;;;5.28;3.95;;;7.10;99.90;;;;;;5005169;28;20291;-73
2021/11/23 01:10:13;;;;;;;7.70;4.32;;;7.20;99.90;;;;;;5007564;28;20258;-74
2021/11/23 01:12:41;;;;;;;7.93;3.42;;;7.20;99.90;;;;;;5006090;28;20699;-73
2021/11/23 01:15:09;;;;;;;8.98;3.45;;;7.20;99.90;;;;;;5000713;28;20252;-74
2021/11/23 01:17:37;;;;;;;9.35;4.15;;;7.20;99.90;;;;;;5021320;28;20204;-73
2021/11/23 01:20:07;;;;;;;12.90;3.95;;;7.20;99.90;;;;;;5013152;28;20203;-74
2021/11/23 01:22:35;;;;;;;11.88;5.03;;;7.30;99.90;;;;;;5007766;28;20200;-74
2021/11/23 01:25:02;;;;;;;11.43;4.90;;;7.30;99.90;;;;;;5010400;28;20236;-73
2021/11/23 01:27:29;;;;;;;8.65;4.57;;;7.30;99.90;;;;;;5004421;28;20266;-74
2021/11/23 01:29:56;;;;;;;10.30;3.63;;;7.40;99.90;;;;;;5007560;28;20205;-75
2021/11/23 01:32:23;;;;;;;6.25;3.70;;;7.40;99.90;;;;;;5017638;28;20247;-73
2021/11/23 01:34:50;;;;;;;13.75;4.82;;;7.40;99.90;;;;;;5010284;28;20262;-73
2021/11/23 01:37:17;;;;;;;9.73;3.65;;;7.50;99.90;;;;;;5015425;28;20299;-75
2021/11/23 01:39:46;;;;;;;9.45;5.03;;;7.40;99.90;;;;;;5016204;28;20209;-74
2021/11/23 01:42:13;;;;;;;8.00;4.85;;;7.60;99.90;;;;;;5011583;28;20660;-75
2021/11/23 01:44:40;;;;;;;13.70;4.90;;;7.60;99.90;;;;;;5003124;28;20315;-76
2021/11/23 01:47:07;;;;;;;19.25;4.95;;;7.70;99.90;;;;;;5003626;28;20254;-73
2021/11/23 01:49:34;;;;;;;6.30;4.28;;;7.70;99.90;;;;;;5003093;28;20205;-74
2021/11/23 01:52:02;;;;;;;6.55;4.18;;;7.80;99.90;;;;;;4997902;28;20221;-73
2021/11/23 01:54:36;;;;;;;12.13;5.25;;;7.80;99.90;;;;;;5005466;28;20237;-74
2021/11/23 01:57:04;;;;;;;12.02;5.15;;;7.90;99.90;;;;;;4995993;28;20208;-73
2021/11/23 01:59:31;;;;;;;7.97;4.50;;;7.90;99.90;;;;;;4996179;28;20583;-73
2021/11/23 02:01:58;;;;;;;10.57;6.05;;;7.90;99.90;;;;;;5013959;28;20205;-74
2021/11/23 02:04:25;;;;;;;11.48;5.55;;;7.90;99.90;;;;;;5015726;28;20278;-73
2021/11/23 02:06:52;;;;;;;16.92;7.07;;;8.00;99.90;;;;;;5015649;28;20256;-74
2021/11/23 02:09:19;;;;;;;13.60;5.72;;;8.00;99.90;;;;;;5015576;28;20200;-74
2021/11/23 02:11:48;;;;;;;12.98;6.68;;;8.00;99.90;;;;;;5015464;28;20623;-74
2021/11/23 02:14:16;;;;;;;10.60;7.25;;;8.10;99.90;;;;;;5015164;28;20228;-73
2021/11/23 02:16:43;;;;;;;13.02;5.25;;;8.10;99.90;;;;;;5007337;28;20201;-74
2021/11/23 02:19:10;;;;;;;12.27;6.80;;;8.20;99.90;;;;;;5003754;28;20247;-74
2021/11/23 02:21:38;;;;;;;16.30;7.25;;;8.30;99.90;;;;;;4995784;28;20640;-74
2021/11/23 02:24:06;;;;;;;9.85;6.35;;;8.30;99.90;;;;;;4995625;28;20284;-74
2021/11/23 02:26:33;;;;;;;12.40;7.80;;;8.30;99.90;;;;;;5006076;28;20236;-73
2021/11/23 02:29:00;;;;;;;7.60;6.75;;;8.30;99.90;;;;;;5014931;28;20629;-74
2021/11/23 02:31:27;;;;;;;12.07;7.60;;;8.30;99.90;;;;;;5026240;28;20287;-72
2021/11/23 02:33:54;;;;;;;19.70;7.60;;;8.30;99.90;;;;;;5007816;28;20280;-73
2021/11/23 02:36:21;;;;;;;12.00;7.07;;;8.30;99.90;;;;;;5010126;28;20302;-74
2021/11/23 02:38:49;;;;;;;22.75;7.65;;;8.30;99.90;;;;;;5014614;28;20236;-76
2021/11/23 02:41:17;;;;;;;12.65;7.88;;;8.30;99.90;;;;;;5014723;28;20208;-74
2021/11/23 02:43:45;;;;;;;14.52;8.15;;;8.30;99.90;;;;;;5007886;28;20281;-74
2021/11/23 02:46:12;;;;;;;11.73;6.90;;;8.30;99.90;;;;;;5004942;28;20204;-74
2021/11/23 02:48:39;;;;;;;12.38;8.50;;;8.30;99.90;;;;;;4999534;28;20202;-74
2021/11/23 02:51:13;;;;;;;13.70;7.35;;;8.30;99.90;;;;;;5017402;28;20201;-73
2021/11/23 02:53:40;;;;;;;17.70;7.80;;;8.40;99.90;;;;;;4999654;28;20197;-75
2021/11/23 02:56:09;;;;;;;8.43;7.63;;;8.40;99.90;;;;;;5002598;28;20748;-74
2021/11/23 02:58:36;;;;;;;11.05;8.13;;;8.40;99.90;;;;;;5008593;28;20205;-73
2021/11/23 03:01:09;;;;;;;14.60;7.78;;;8.40;99.90;;;;;;5013815;28;20292;-74
2021/11/23 03:03:36;;;;;;;10.80;7.47;;;8.40;99.90;;;;;;5007799;28;20292;-74
2021/11/23 03:06:03;;;;;;;12.23;8.73;;;8.40;99.90;;;;;;5010996;28;20247;-75
2021/11/23 03:08:30;;;;;;;11.23;8.30;;;8.40;99.90;;;;;;5010947;28;20232;-72
2021/11/23 03:10:58;;;;;;;10.95;8.45;;;8.40;99.90;;;;;;5022082;28;20239;-75
2021/11/23 03:13:27;;;;;;;10.40;8.85;;;8.40;99.90;;;;;;5008290;28;20280;-76
2021/11/23 03:15:54;;;;;;;10.10;8.63;;;8.40;99.90;;;;;;5005346;28;20336;-73
2021/11/23 03:18:20;;;;;;;13.50;9.07;;;8.40;99.90;;;;;;5008684;28;20524;-75
2021/11/23 03:20:50;;;;;;;11.25;7.43;;;8.40;99.90;;;;;;5014061;28;20245;-74
2021/11/23 03:23:17;;;;;;;18.67;11.00;;;8.40;99.90;;;;;;4998075;28;20254;-74
2021/11/23 03:25:45;;;;;;;13.95;11.02;;;8.40;99.90;;;;;;5005899;28;20229;-74
2021/11/23 03:28:12;;;;;;;16.33;10.38;;;8.40;99.90;;;;;;5011888;28;21703;-74
2021/11/23 03:30:41;;;;;;;12.55;9.95;;;8.40;99.90;;;;;;5007635;28;20232;-76
2021/11/23 03:33:09;;;;;;;12.82;9.10;;;8.40;99.90;;;;;;5005917;28;20295;-75
2021/11/23 03:35:38;;;;;;;15.85;10.10;;;8.50;99.90;;;;;;5005594;28;20275;-74
2021/11/23 03:38:07;;;;;;;12.10;10.48;;;8.50;99.90;;;;;;5002274;28;20698;-74
2021/11/23 03:40:35;;;;;;;10.75;8.95;;;8.50;99.90;;;;;;5002830;28;20204;-75
2021/11/23 03:43:03;;;;;;;11.60;10.40;;;8.50;99.90;;;;;;5010519;28;20661;-74
2021/11/23 03:45:30;;;;;;;15.60;12.35;;;8.50;99.90;;;;;;5001600;28;20228;-75
2021/11/23 03:47:59;;;;;;;12.45;9.73;;;8.50;99.90;;;;;;5006898;28;20364;-73
2021/11/23 03:50:27;;;;;;;11.27;10.07;;;8.50;99.90;;;;;;5003718;28;20275;-74
2021/11/23 03:52:55;;;;;;;14.68;9.90;;;8.50;99.90;;;;;;4999315;28;20260;-74
2021/11/23 03:55:23;;;;;;;13.18;9.85;;;8.40;99.90;;;;;;5006739;28;20229;-73
2021/11/23 03:57:52;;;;;;;17.30;11.23;;;8.40;99.90;;;;;;4998132;28;20201;-74
2021/11/23 04:00:21;;;;;;;13.18;10.02;;;8.40;99.90;;;;;;5013253;28;20239;-73
2021/11/23 04:02:49;;;;;;;12.93;8.82;;;8.30;99.90;;;;;;5012979;28;20710;-74
2021/11/23 04:05:17;;;;;;;13.73;9.48;;;8.30;99.90;;;;;;4996590;28;20295;-74
2021/11/23 04:07:44;;;;;;;10.65;8.93;;;8.30;99.90;;;;;;5002720;28;20202;-74
2021/11/23 04:10:15;;;;;;;10.40;9.40;;;8.30;99.90;;;;;;5013189;28;20255;-75
2021/11/23 04:12:42;;;;;;;14.30;10.05;;;8.40;99.90;;;;;;5005928;28;20616;-74
2021/11/23 04:15:11;;;;;;;12.65;9.50;;;8.30;99.90;;;;;;5002181;28;20253;-74
2021/11/23 04:17:38;;;;;;;11.68;10.45;;;8.30;99.90;;;;;;5012274;28;20197;-72
2021/11/23 04:20:06;;;;;;;16.13;11.40;;;8.20;99.90;;;;;;5003954;28;20205;-75
2021/11/23 04:22:34;;;;;;;13.25;10.02;;;8.10;99.90;;;;;;5014999;28;20205;-74
2021/11/23 04:25:02;;;;;;;15.48;10.98;;;8.10;99.90;;;;;;4997789;28;20279;-74
2021/11/23 04:27:29;;;;;;;16.95;11.30;;;8.10;99.90;;;;;;5012043;28;20205;-74
2021/11/23 04:29:56;;;;;;;12.95;10.43;;;8.00;99.90;;;;;;5008561;28;20611;-74
2021/11/23 04:32:23;;;;;;;19.40;10.82;;;8.00;99.90;;;;;;5009119;28;20267;-74
2021/11/23 04:34:50;;;;;;;14.85;10.40;;;8.00;99.90;;;;;;4999005;28;20261;-74
2021/11/23 04:37:17;;;;;;;15.10;11.45;;;7.90;99.90;;;;;;5004607;28;20258;-74
2021/11/23 04:39:45;;;;;;;14.48;10.23;;;7.90;99.90;;;;;;5001193;28;20209;-75
2021/11/23 04:42:12;;;;;;;18.55;12.85;;;7.90;99.90;;;;;;5007583;28;20281;-73
2021/11/23 04:44:39;;;;;;;15.55;11.05;;;7.90;99.90;;;;;;5002713;28;20229;-75
2021/11/23 04:47:06;;;;;;;14.63;10.30;;;7.90;99.90;;;;;;5004392;28;20255;-73
2021/11/23 04:49:34;;;;;;;20.33;13.35;;;7.90;99.90;;;;;;4999055;28;20219;-74
2021/11/23 04:52:01;;;;;;;16.45;11.98;;;7.90;99.90;;;;;;5012173;28;20217;-74
2021/11/23 04:54:28;;;;;;;15.80;12.32;;;7.90;99.90;;;;;;5011874;28;20259;-74
2021/11/23 04:56:56;;;;;;;13.85;11.32;;;8.00;99.90;;;;;;5005103;28;20652;-74
2021/11/23 04:59:23;;;;;;;15.95;12.00;;;8.10;99.90;;;;;;4998568;28;20247;-74
2021/11/23 05:01:50;;;;;;;16.98;12.35;;;8.00;99.90;;;;;;5004344;28;20236;-74
2021/11/23 05:04:17;;;;;;;18.40;13.30;;;8.10;99.90;;;;;;5012423;28;20306;-76
2021/11/23 05:06:44;;;;;;;20.27;13.10;;;8.20;99.90;;;;;;5014597;28;20207;-74
2021/11/23 05:09:11;;;;;;;21.88;13.52;;;8.20;99.90;;;;;;5024109;28;20255;-72
2021/11/23 05:11:40;;;;;;;16.55;12.77;;;8.30;99.90;;;;;;5029189;28;20697;-73
2021/11/23 05:14:08;;;;;;;19.65;13.32;;;8.30;99.90;;;;;;5016577;28;20229;-75
2021/11/23 05:16:35;;;;;;;21.02;13.55;;;8.30;99.90;;;;;;5011894;28;20287;-74
2021/11/23 05:19:02;;;;;;;24.55;13.65;;;8.30;99.90;;;;;;5008229;28;20646;-75
2021/11/23 05:21:29;;;;;;;19.38;13.93;;;8.40;99.90;;;;;;5016239;28;20279;-74
2021/11/23 05:23:56;;;;;;;19.13;12.02;;;8.40;99.90;;;;;;5016046;28;20279;-75
2021/11/23 05:26:23;;;;;;;18.95;11.57;;;8.40;99.90;;;;;;5015456;28;20682;-75
2021/11/23 05:28:50;;;;;;;23.85;14.15;;;8.40;99.90;;;;;;5016400;28;20205;-74
2021/11/23 05:31:18;;;;;;;20.52;13.30;;;8.50;99.90;;;;;;5016275;28;20196;-74
2021/11/23 05:33:46;;;;;;;24.00;15.15;;;8.50;99.90;;;;;;5014825;28;20189;-74
2021/11/23 06:50:43;;;;;;;24.88;12.15;;;8.90;99.90;;;;;;5887390;23;20241;-75
2021/11/23 06:53:11;;;;;;;19.65;11.00;;;8.90;99.90;;;;;;5041493;28;20218;-73
2021/11/23 06:55:41;;;;;;;18.15;11.05;;;8.90;99.90;;;;;;5044303;28;20223;-76
2021/11/23 06:58:09;;;;;;;22.98;10.85;;;8.90;99.90;;;;;;5046600;28;20204;-73
2021/11/23 07:00:36;;;;;;;26.58;12.25;;;9.00;99.90;;;;;;5052605;28;20208;-74
2021/11/23 07:03:03;;;;;;;21.23;12.38;;;9.00;99.90;;;;;;5045092;28;20192;-70
2021/11/23 07:05:31;;;;;;;21.67;11.20;;;9.00;99.90;;;;;;5061039;28;20250;-76
2021/11/23 07:08:00;;;;;;;30.25;13.50;;;9.00;99.90;;;;;;5048159;28;20200;-72
2021/11/23 07:10:27;;;;;;;22.83;11.95;;;9.00;99.90;;;;;;5050515;28;20536;-72
2021/11/23 07:12:54;;;;;;;18.40;11.13;;;9.00;99.90;;;;;;5051564;28;20203;-77
2021/11/23 07:15:21;;;;;;;24.10;11.57;;;9.10;99.90;;;;;;5040590;28;20223;-75
2021/11/23 07:17:48;;;;;;;16.98;10.25;;;9.00;99.90;;;;;;5045739;28;20277;-75
2021/11/23 07:20:15;;;;;;;25.40;12.55;;;9.10;99.90;;;;;;5049419;28;20204;-76
2021/11/23 07:22:42;;;;;;;19.95;12.48;;;9.20;99.90;;;;;;5041771;28;20282;-75
2021/11/23 07:25:12;;;;;;;21.05;10.10;;;9.20;99.90;;;;;;5036637;28;20620;-73
2021/11/23 07:27:39;;;;;;;19.30;11.63;;;9.10;99.90;;;;;;5043421;28;21507;-75
2021/11/23 07:30:07;;;;;;;19.90;11.15;;;9.20;99.90;;;;;;5033780;28;20258;-78
2021/11/23 07:32:35;;;;;;;21.73;10.82;;;9.40;99.90;;;;;;5043634;28;20207;-72
2021/11/23 07:35:03;;;;;;;15.57;10.60;;;9.40;99.90;;;;;;5040946;28;20285;-77
2021/11/23 07:37:30;;;;;;;21.20;12.38;;;9.40;99.90;;;;;;5033598;28;20207;-74
2021/11/23 07:39:57;;;;;;;18.10;11.20;;;9.40;99.90;;;;;;5035365;28;20212;-74
2021/11/23 07:42:26;;;;;;;19.83;11.77;;;9.30;99.90;;;;;;5041108;28;20196;-73
2021/11/23 07:44:53;;;;;;;18.95;11.32;;;9.40;99.90;;;;;;5034438;28;20267;-76
2021/11/23 07:47:20;;;;;;;25.85;13.45;;;9.40;99.90;;;;;;5050372;28;20199;-72
2021/11/23 07:49:47;;;;;;;20.35;10.52;;;9.30;99.90;;;;;;5050541;28;20266;-74
2021/11/23 07:52:16;;;;;;;18.83;8.93;;;9.20;99.90;;;;;;5037997;28;20262;-78
2021/11/23 07:54:43;;;;;;;19.85;10.85;;;9.20;99.90;;;;;;5023170;28;20776;-76
2021/11/23 07:57:10;;;;;;;23.45;11.35;;;9.20;99.90;;;;;;5025811;28;20200;-72
2021/11/23 07:59:38;;;;;;;21.88;10.48;;;9.10;99.90;;;;;;5044038;28;20675;-76
2021/11/23 08:02:06;;;;;;;25.42;10.98;;;9.10;99.90;;;;;;5044978;28;20282;-74
2021/11/23 08:04:36;;;;;;;18.88;10.73;;;9.10;99.90;;;;;;5040551;28;20279;-78
2021/11/23 08:07:03;;;;;;;20.80;10.27;;;9.10;99.90;;;;;;5025559;28;20554;-76
2021/11/23 08:09:30;;;;;;;15.93;9.90;;;9.20;99.90;;;;;;5036362;28;20192;-75
2021/11/23 08:11:57;;;;;;;13.82;9.32;;;9.20;99.90;;;;;;5046704;28;20286;-73
2021/11/23 08:14:26;;;;;;;21.88;11.27;;;9.30;99.90;;;;;;5053594;28;20685;-74
2021/11/23 08:16:56;;;;;;;17.73;10.35;;;9.20;99.90;;;;;;5044900;28;20196;-79
2021/11/23 08:19:23;;;;;;;16.42;11.00;;;9.30;99.90;;;;;;5028704;28;20209;-77
2021/11/23 08:21:51;;;;;;;15.70;8.00;;;9.40;99.90;;;;;;5043586;28;20212;-74
2021/11/23 08:24:18;;;;;;;14.73;8.75;;;9.60;99.90;;;;;;5050166;28;20278;-73
2021/11/23 08:26:45;;;;;;;11.98;7.80;;;9.70;99.90;;;;;;5049680;28;20258;-79
2021/11/23 08:29:12;;;;;;;12.20;7.30;;;9.80;99.90;;;;;;5037020;28;20212;-74
2021/11/23 08:31:39;;;;;;;18.60;10.93;;;10.00;99.90;;;;;;5046692;28;20235;-79
2021/11/23 08:34:07;;;;;;;10.18;6.85;;;10.30;99.90;;;;;;5045966;28;20363;-72
2021/11/23 08:36:35;;;;;;;16.02;8.70;;;10.70;99.90;;;;;;5045122;28;20276;-76
2021/11/23 08:39:04;;;;;;;17.27;8.15;;;10.70;99.90;;;;;;5040509;28;20238;-73
2021/11/23 08:41:32;;;;;;;15.73;8.63;;;10.60;99.90;;;;;;5049042;28;20530;-74
2021/11/23 08:43:59;;;;;;;12.73;7.85;;;10.50;99.90;;;;;;5049083;28;20225;-76
2021/11/23 08:46:26;;;;;;;15.38;8.52;;;10.30;99.90;;;;;;5044137;28;20252;-75
2021/11/23 08:48:54;;;;;;;17.88;8.98;;;10.10;99.90;;;;;;5044394;28;20212;-73
2021/11/23 08:51:29;;;;;;;20.05;8.07;;;10.00;99.90;;;;;;5037427;28;20215;-75
2021/11/23 08:53:56;;;;;;;15.40;8.20;;;9.90;99.90;;;;;;5049634;28;20231;-74
2021/11/23 08:56:23;;;;;;;21.52;9.75;;;9.80;99.90;;;;;;5045140;28;20226;-75
2021/11/23 08:58:53;;;;;;;14.23;8.60;;;9.80;99.90;;;;;;5046090;28;20211;-74
2021/11/23 09:01:24;;;;;;;15.02;8.95;;;9.80;99.90;;;;;;5045127;28;20291;-76
2021/11/23 09:03:52;;;;;;;18.90;9.60;;;9.80;99.90;;;;;;5049049;28;20217;-74
2021/11/23 09:06:20;;;;;;;16.42;9.73;;;9.90;99.90;;;;;;5043660;28;20293;-76
2021/11/23 09:08:53;;;;;;;18.05;11.15;;;10.00;99.90;;;;;;5047140;28;20211;-75
2021/11/23 09:11:21;;;;;;;15.65;9.30;;;9.80;99.90;;;;;;5042063;28;20659;-74
2021/11/23 09:13:48;;;;;;;19.00;9.60;;;9.70;99.90;;;;;;5048843;28;20214;-74
2021/11/23 09:16:15;;;;;;;17.02;9.82;;;9.60;99.90;;;;;;5037466;28;20231;-74
2021/11/23 09:18:42;;;;;;;21.38;10.70;;;9.70;99.90;;;;;;5047663;28;20204;-74
2021/11/23 09:21:09;;;;;;;19.13;10.68;;;9.80;99.90;;;;;;5045970;28;20213;-74
2021/11/23 09:23:36;;;;;;;21.33;9.50;;;10.20;99.90;;;;;;5036141;28;20212;-75
2021/11/23 09:26:05;;;;;;;23.17;10.90;;;10.70;99.90;;;;;;5046192;28;20300;-73
2021/11/23 09:28:32;;;;;;;19.63;10.63;;;10.90;99.90;;;;;;5048223;28;20283;-74
2021/11/23 09:30:59;;;;;;;18.58;10.45;;;10.90;99.90;;;;;;5043623;28;20509;-74
2021/11/23 09:33:26;;;;;;;17.98;9.32;;;11.00;99.90;;;;;;5052756;28;20244;-73
2021/11/23 09:35:53;;;;;;;11.38;8.00;;;10.90;99.90;;;;;;5043209;28;20279;-74
2021/11/23 09:38:20;;;;;;;13.98;8.95;;;10.80;99.90;;;;;;5045783;28;20284;-74
2021/11/23 09:40:47;;;;;;;15.60;7.95;;;10.90;99.90;;;;;;5038823;28;20199;-74
2021/11/23 09:43:16;;;;;;;16.48;8.75;;;11.30;99.90;;;;;;5053986;28;20200;-75
2021/11/23 09:45:43;;;;;;;11.65;8.23;;;12.10;99.90;;;;;;5048089;28;20256;-74
2021/11/23 09:48:11;;;;;;;11.25;7.07;;;12.90;99.90;;;;;;5043509;28;20243;-75
2021/11/23 09:50:39;;;;;;;17.33;8.98;;;13.00;99.90;;;;;;5045741;28;20215;-72
2021/11/23 09:53:07;;;;;;;13.93;7.40;;;12.80;99.90;;;;;;5040151;28;20626;-75
2021/11/23 09:55:34;;;;;;;9.05;6.82;;;13.10;99.90;;;;;;5036605;28;20690;-75
2021/11/23 09:58:01;;;;;;;10.32;7.45;;;13.90;99.90;;;;;;5046294;28;20231;-75
2021/11/23 10:00:34;;;;;;;12.98;6.45;;;14.40;99.90;;;;;;5047757;28;20282;-77
2021/11/23 10:03:07;;;;;;;7.85;5.35;;;14.50;99.90;;;;;;5038554;28;20206;-78
2021/11/23 10:05:37;;;;;;;9.52;5.40;;;15.00;99.90;;;;;;5051787;28;20219;-78
2021/11/23 10:08:10;;;;;;;9.73;6.18;;;15.20;99.90;;;;;;5053090;28;20229;-78
2021/11/23 10:10:45;;;;;;;8.93;6.18;;;15.40;99.90;;;;;;5045090;28;20515;-78
2021/11/23 10:13:12;;;;;;;16.70;6.17;;;15.70;99.90;;;;;;5047734;28;20567;-77
2021/11/23 10:15:45;;;;;;;9.07;5.40;;;16.00;99.90;;;;;;5036896;28;20474;-78
2021/11/23 10:18:14;;;;;;;8.85;5.88;;;15.70;99.90;;;;;;5033886;28;20633;-78
2021/11/23 10:20:43;;;;;;;9.95;7.18;;;15.60;99.90;;;;;;5048067;28;20193;-81
2021/11/23 10:23:17;;;;;;;10.23;6.28;;;14.70;99.90;;;;;;5043090;28;20598;-77
2021/11/23 10:25:46;;;;;;;13.02;6.43;;;14.50;99.90;;;;;;5044803;28;20318;-77
2021/11/23 10:28:13;;;;;;;9.40;5.22;;;14.30;99.90;;;;;;5044542;28;20621;-78
2021/11/23 10:30:45;;;;;;;13.68;6.30;;;14.00;99.90;;;;;;5045720;28;20202;-79
2021/11/23 10:33:13;;;;;;;11.68;7.03;;;13.60;99.90;;;;;;5045232;28;20207;-78
2021/11/23 10:35:43;;;;;;;11.57;6.43;;;13.30;99.90;;;;;;5041777;28;20227;-78
2021/11/23 10:38:11;;;;;;;8.60;6.07;;;13.00;99.90;;;;;;5046257;28;20209;-79
2021/11/23 10:40:39;;;;;;;10.25;6.60;;;12.80;99.90;;;;;;5042956;28;20658;-80
2021/11/23 10:43:10;;;;;;;13.40;7.20;;;12.60;99.90;;;;;;5038468;28;20215;-78
2021/11/23 10:45:39;;;;;;;8.60;5.65;;;12.00;99.90;;;;;;5038353;28;20273;-83
2021/11/23 10:48:09;;;;;;;9.02;5.53;;;11.60;99.90;;;;;;5047724;28;20203;-77
2021/11/23 10:50:38;;;;;;;12.65;4.93;;;11.40;99.90;;;;;;5043803;28;20245;-78
2021/11/23 10:53:08;;;;;;;8.40;4.95;;;11.30;99.90;;;;;;5044630;28;20572;-77
2021/11/23 10:55:37;;;;;;;10.73;6.75;;;11.30;99.90;;;;;;5049966;28;20257;-78
2021/11/23 10:58:13;;;;;;;5.75;4.45;;;11.40;99.90;;;;;;5064304;28;20183;-76
2021/11/23 11:00:42;;;;;;;6.43;4.50;;;11.30;99.90;;;;;;5039393;28;20233;-76
2021/11/23 11:03:12;;;;;;;8.15;4.22;;;11.40;99.90;;;;;;5036615;28;20565;-77
2021/11/23 11:05:42;;;;;;;6.45;4.03;;;11.40;99.90;;;;;;5046467;28;20311;-79
2021/11/23 11:08:11;;;;;;;6.93;4.00;;;11.40;99.90;;;;;;5036238;28;21014;-77
2021/11/23 11:10:39;;;;;;;8.00;4.90;;;11.40;99.90;;;;;;5049597;28;20206;-78
2021/11/23 11:13:08;;;;;;;8.70;4.38;;;11.40;99.90;;;;;;5043237;28;20211;-78
2021/11/23 11:15:38;;;;;;;5.18;3.15;;;11.40;99.90;;;;;;5048278;28;20249;-78
2021/11/23 11:18:13;;;;;;;5.20;3.90;;;11.50;99.90;;;;;;5054607;28;20207;-79
2021/11/23 11:20:44;;;;;;;7.53;3.30;;;11.50;99.90;;;;;;5047108;28;20282;-79
2021/11/23 11:23:14;;;;;;;6.95;3.75;;;11.70;99.90;;;;;;5046692;28;20193;-79
2021/11/23 11:26:14;;;;;;;10.40;6.40;;;11.70;99.90;;;;;;5044422;28;20307;-79
2021/11/23 11:28:48;;;;;;;8.18;3.75;;;11.80;99.90;;;;;;5034724;28;20710;-79
2021/11/23 11:31:38;;;;;;;9.32;5.50;;;11.90;99.90;;;;;;5033334;28;20228;-79
2021/11/23 11:34:23;;;;;;;8.15;3.63;;;12.10;99.90;;;;;;5051219;28;20230;-80
2021/11/23 11:37:00;;;;;;;5.85;3.67;;;12.30;99.90;;;;;;5053967;28;20192;-79
2021/11/23 11:39:58;;;;;;;5.05;2.70;;;12.30;99.90;;;;;;5027731;28;20642;-79
2021/11/23 11:42:51;;;;;;;7.32;2.60;;;12.30;99.90;;;;;;5047334;28;20648;-81
2021/11/23 11:45:21;;;;;;;4.75;2.70;;;12.30;99.90;;;;;;5032600;28;20635;-80
2021/11/23 11:47:51;;;;;;;7.95;3.05;;;12.30;99.90;;;;;;5037323;28;20268;-81
2021/11/23 11:50:24;;;;;;;8.73;3.40;;;12.40;99.90;;;;;;5030429;28;20252;-79
2021/11/23 11:53:11;;;;;;;9.27;2.95;;;12.20;99.90;;;;;;5032393;28;20212;-80
2021/11/23 11:55:47;;;;;;;9.73;3.20;;;12.10;99.90;;;;;;5027012;28;20271;-80
2021/11/23 11:58:35;;;;;;;4.00;3.08;;;11.90;99.90;;;;;;5051952;28;20233;-80
2021/11/23 12:01:26;;;;;;;5.00;2.88;;;11.80;99.90;;;;;;5060599;28;20255;-79
2021/11/23 12:04:02;;;;;;;8.25;3.05;;;11.80;99.90;;;;;;5062576;28;20220;-79
2021/11/23 12:07:06;;;;;;;6.97;3.10;;;11.80;99.90;;;;;;5053751;28;20228;-81
2021/11/23 12:09:37;;;;;;;12.35;3.58;;;11.70;99.90;;;;;;5055196;28;20238;-81
2021/11/23 12:12:31;;;;;;;5.47;2.47;;;11.70;99.90;;;;;;5029599;28;20244;-81
2021/11/23 12:15:13;;;;;;;10.23;5.25;;;11.80;99.90;;;;;;5037282;28;20230;-80
2021/11/23 12:18:03;;;;;;;9.25;3.90;;;11.90;99.90;;;;;;5044881;28;20270;-81
2021/11/23 12:20:43;;;;;;;6.97;2.78;;;12.10;99.90;;;;;;5049598;28;20198;-81
2021/11/23 12:23:18;;;;;;;7.05;2.90;;;12.30;99.90;;;;;;5040565;28;20224;-82
2021/11/23 12:25:54;;;;;;;6.85;3.22;;;12.30;99.90;;;;;;5052724;28;20221;-81
2021/11/23 12:28:22;;;;;;;10.27;3.00;;;12.50;99.90;;;;;;5027831;28;20262;-80
2021/11/23 12:30:50;;;;;;;7.43;3.55;;;12.60;99.90;;;;;;5050503;28;20212;-80
2021/11/23 12:33:19;;;;;;;6.15;3.38;;;12.50;99.90;;;;;;5049803;28;20275;-81
2021/11/23 12:35:46;;;;;;;13.68;2.95;;;12.20;99.90;;;;;;5040559;28;20234;-81
2021/11/23 12:38:28;;;;;;;4.85;2.42;;;12.10;99.90;;;;;;5056980;28;20243;-81
2021/11/23 12:40:56;;;;;;;14.77;4.20;;;12.00;99.90;;;;;;5061769;28;20259;-80
2021/11/23 12:43:35;;;;;;;7.15;3.10;;;12.00;99.90;;;;;;5044078;28;20256;-83
2021/11/23 12:46:11;;;;;;;4.32;2.40;;;11.80;99.90;;;;;;5039263;28;20205;-80
2021/11/23 12:48:41;;;;;;;8.85;2.75;;;11.80;99.90;;;;;;5026803;28;20216;-83
2021/11/23 12:51:25;;;;;;;7.70;2.78;;;11.80;99.90;;;;;;5039690;28;20202;-80
2021/11/23 12:54:00;;;;;;;10.48;3.22;;;11.90;99.90;;;;;;5042441;28;20235;-80
2021/11/23 12:56:48;;;;;;;4.93;3.10;;;11.90;99.90;;;;;;5044894;28;20576;-82
2021/11/23 12:59:48;;;;;;;5.93;2.63;;;11.90;99.90;;;;;;5026181;28;20204;-81
2021/11/23 13:02:35;;;;;;;7.50;3.28;;;11.80;99.90;;;;;;5061334;28;20686;-80
2021/11/23 13:05:10;;;;;;;3.58;2.20;;;11.80;99.90;;;;;;5058430;28;20233;-82
2021/11/23 13:07:42;;;;;;;4.38;3.00;;;11.90;99.90;;;;;;5055993;28;20236;-82
2021/11/23 13:10:13;;;;;;;5.72;1.90;;;12.00;99.90;;;;;;5059202;28;20200;-80
2021/11/23 13:12:43;;;;;;;13.27;2.60;;;11.90;99.90;;;;;;5060420;28;20193;-81
2021/11/23 13:15:11;;;;;;;10.02;2.97;;;11.90;99.90;;;;;;5059901;28;20233;-81
2021/11/23 13:17:50;;;;;;;7.57;2.60;;;11.80;99.90;;;;;;5066225;28;20224;-80
2021/11/23 13:20:46;;;;;;;5.00;2.17;;;11.90;99.90;;;;;;5068078;28;20546;-80
2021/11/23 13:23:22;;;;;;;7.10;2.65;;;11.90;99.90;;;;;;5058831;28;20273;-80
2021/11/23 13:25:51;;;;;;;10.63;2.63;;;11.80;99.90;;;;;;5056651;28;20691;-81
2021/11/23 13:28:24;;;;;;;7.55;2.97;;;11.90;99.90;;;;;;5061120;28;20189;-81
2021/11/23 13:30:55;;;;;;;7.63;2.58;;;11.80;99.90;;;;;;5061491;28;20238;-80
2021/11/23 13:33:36;;;;;;;11.43;5.10;;;11.80;99.90;;;;;;5062654;28;20197;-82
2021/11/23 13:36:08;;;;;;;6.22;2.50;;;11.70;99.90;;;;;;5059857;28;20236;-80
2021/11/23 13:38:38;;;;;;;7.38;2.25;;;11.70;99.90;;;;;;5049879;28;20223;-77
2021/11/23 13:41:13;;;;;;;9.60;2.30;;;11.50;99.90;;;;;;5058045;28;20194;-79
2021/11/23 13:43:41;;;;;;;4.63;2.20;;;11.50;99.90;;;;;;5055759;28;20203;-76
2021/11/23 13:46:10;;;;;;;7.40;2.30;;;11.50;99.90;;;;;;5039576;28;20202;-77
2021/11/23 13:48:39;;;;;;;6.68;2.08;;;11.50;99.90;;;;;;5051915;28;20209;-79
2021/11/23 13:51:11;;;;;;;11.90;4.05;;;11.50;99.90;;;;;;5038883;28;20263;-77
2021/11/23 13:54:04;;;;;;;9.05;2.25;;;11.50;99.90;;;;;;5051102;28;20201;-77
2021/11/23 13:56:33;;;;;;;3.72;2.22;;;11.60;99.90;;;;;;5055765;28;20683;-76
2021/11/23 13:59:03;;;;;;;7.97;2.30;;;11.70;99.90;;;;;;5048954;28;20194;-77
2021/11/23 14:01:38;;;;;;;3.97;1.80;;;11.80;99.90;;;;;;5036653;28;20300;-76
2021/11/23 14:04:16;;;;;;;7.20;2.20;;;11.80;99.90;;;;;;5044023;28;20230;-77
2021/11/23 14:07:02;;;;;;;6.03;2.15;;;11.90;99.90;;;;;;5023620;28;20208;-75
2021/11/23 14:09:44;;;;;;;4.15;2.00;;;12.10;99.90;;;;;;5025024;28;20286;-73
2021/11/23 14:12:11;;;;;;;3.10;2.05;;;12.20;99.90;;;;;;5047553;28;20531;-75